PADL/DLG METAR and TAF weather

Enter ICAO airport designator
Station Type Date Time Source
PADL METAR 2020/03/28 08:27 UTC NOAA

PADL 280827Z AUTO 21007G14KT 170V240 3SM -SN BR OVC003 00/M01 A2973 RMK AO2 P0001 FZRANO


Station Type Date Time Source
PADL Decoded METAR 2020/03/28 08:27 UTC NOAA

Dillingham, Dillingham Airport, AK, United States (PADL) 59-03N 158-31W 29M
Mar 28, 2020 - 04:27 AM EDT / 2020.03.28 0827 UTC
Wind: from the SSW (210 degrees) at 8 MPH (7 KT) gusting to 16 MPH (14 KT) (direction variable):0
Visibility: 3 mile(s):0
Sky conditions: overcast
Weather: light snow; mist
Precipitation last hour: 0.01 inches
Temperature: 32 F (0 C)
Windchill: 24 F (-4 C):1
Dew Point: 30 F (-1 C)
Relative Humidity: 92%
Pressure (altimeter): 29.73 in. Hg (1006 hPa)
ob: PADL 280827Z AUTO 21007G14KT 170V240 3SM -SN BR OVC003 00/M01 A2973 RMK AO2 P0001 FZRANO
cycle: 8

Station Type Date Time Source
PADL TAF 2020/03/28 06:48 UTC NOAA

TAF PADL 280545Z 2806/2906 21006KT 3SM -RASN BR SCT005 OVC035
TEMPO 2806/2808 BKN005
FM280900 20006KT 3SM -SN BR BKN007 OVC015
FM281100 22006KT 2SM -SN BR OVC007
FM281800 26008G16KT 3SM -SN BR BKN007 OVC015
FM282200 30010G18KT P6SM VCSH SCT015 BKN050 BKN130

Example: see airport list